Time;durP1;ratioP1;P1;durP2;ratioP2;P2;SDS_P1;SDS_P2;PMS_P1;PMS_P2;Temp;Humidity;BMP_temperature;BMP_pressure;BME280_temperature;BME280_humidity;BME280_pressure;Samples;Min_cycle;Max_cycle;Signal;HPM_P1;HPM_P2
2022/09/24 00:00:50;;;;;;;2.77;2.53;;;;;;;;;;5029155;28;20987;-66
2022/09/24 00:03:19;;;;;;;5.30;2.77;;;;;;;;;;5029101;28;20298;-67
2022/09/24 00:05:46;;;;;;;3.17;2.97;;;;;;;;;;5028896;28;20291;-66
2022/09/24 00:08:14;;;;;;;3.50;3.00;;;;;;;;;;5028733;28;20219;-66
2022/09/24 00:10:43;;;;;;;4.30;2.37;;;;;;;;;;5029068;28;20610;-66
2022/09/24 00:13:11;;;;;;;3.43;2.10;;;;;;;;;;5028395;28;20667;-67
2022/09/24 00:15:39;;;;;;;2.70;2.50;;;;;;;;;;5028106;28;20296;-67
2022/09/24 00:18:06;;;;;;;2.20;2.10;;;;;;;;;;5028857;28;20453;-66
2022/09/24 00:20:35;;;;;;;2.30;2.20;;;;;;;;;;5028082;28;20295;-67
2022/09/24 00:23:02;;;;;;;2.93;2.83;;;;;;;;;;5028252;28;20929;-66
2022/09/24 00:28:14;;;;;;;2.70;2.50;;;;;;;;;;5029077;28;20274;-66
2022/09/24 00:30:42;;;;;;;2.97;2.37;;;;;;;;;;5028559;28;20204;-66
2022/09/24 00:33:09;;;;;;;2.97;2.10;;;;;;;;;;5028199;28;20699;-66
2022/09/24 00:35:38;;;;;;;2.07;2.07;;;;;;;;;;5028740;28;20209;-67
2022/09/24 00:38:06;;;;;;;2.93;2.13;;;;;;;;;;5028075;28;20214;-66
2022/09/24 00:40:33;;;;;;;2.10;2.00;;;;;;;;;;5028425;28;20635;-67
2022/09/24 00:43:00;;;;;;;2.73;2.50;;;;;;;;;;5028568;28;20231;-67
2022/09/24 00:45:28;;;;;;;2.80;2.60;;;;;;;;;;5028252;28;20285;-67
2022/09/24 00:47:55;;;;;;;2.63;2.43;;;;;;;;;;5028638;28;20215;-67
2022/09/24 00:50:24;;;;;;;2.53;2.43;;;;;;;;;;5028515;28;20216;-67
2022/09/24 00:52:55;;;;;;;2.90;2.70;;;;;;;;;;5027738;28;20228;-67
2022/09/24 00:55:23;;;;;;;2.43;2.23;;;;;;;;;;5027954;28;20211;-67
2022/09/24 00:57:51;;;;;;;2.70;2.50;;;;;;;;;;5008785;28;20235;-66
2022/09/24 01:00:19;;;;;;;3.07;2.60;;;;;;;;;;5027162;28;20258;-67
2022/09/24 01:02:47;;;;;;;2.10;2.00;;;;;;;;;;5028225;28;20308;-67
2022/09/24 01:05:15;;;;;;;2.67;2.40;;;;;;;;;;5024143;28;20204;-67
2022/09/24 01:07:42;;;;;;;2.60;2.30;;;;;;;;;;5029234;28;20206;-67
2022/09/24 01:10:11;;;;;;;2.63;2.43;;;;;;;;;;5031835;28;20250;-68
2022/09/24 01:12:42;;;;;;;3.03;2.40;;;;;;;;;;5031147;28;20318;-67
2022/09/24 01:15:15;;;;;;;5.73;2.27;;;;;;;;;;5032051;28;20581;-65
2022/09/24 01:17:47;;;;;;;2.33;2.23;;;;;;;;;;5031911;28;20670;-65
2022/09/24 01:20:26;;;;;;;3.37;2.27;;;;;;;;;;5032362;28;20219;-65
2022/09/24 01:23:02;;;;;;;2.77;2.50;;;;;;;;;;5028888;28;20208;-65
2022/09/24 01:25:37;;;;;;;2.80;2.13;;;;;;;;;;5032071;28;20653;-66
2022/09/24 01:28:14;;;;;;;2.87;2.17;;;;;;;;;;5031978;28;20215;-66
2022/09/24 01:30:45;;;;;;;2.23;2.13;;;;;;;;;;5031827;28;20212;-66
2022/09/24 01:33:13;;;;;;;2.97;2.77;;;;;;;;;;5031903;28;20227;-66
2022/09/24 01:35:42;;;;;;;2.60;2.40;;;;;;;;;;5031537;28;20231;-65
2022/09/24 01:38:12;;;;;;;3.30;2.47;;;;;;;;;;5031246;28;20216;-66
2022/09/24 01:40:41;;;;;;;2.13;2.03;;;;;;;;;;5031742;28;20219;-66
2022/09/24 01:43:09;;;;;;;2.70;2.50;;;;;;;;;;5031584;28;20211;-66
2022/09/24 01:45:37;;;;;;;2.37;2.17;;;;;;;;;;5031494;28;20675;-66
2022/09/24 01:48:06;;;;;;;4.27;2.67;;;;;;;;;;5031876;28;20973;-65
2022/09/24 01:50:36;;;;;;;3.60;2.83;;;;;;;;;;5031398;28;20216;-66
2022/09/24 01:53:04;;;;;;;3.60;3.30;;;;;;;;;;5031479;28;20339;-66
2022/09/24 01:55:34;;;;;;;4.37;2.83;;;;;;;;;;5031447;28;20208;-66
2022/09/24 01:58:04;;;;;;;2.97;2.77;;;;;;;;;;5031580;28;20220;-66
2022/09/24 02:00:31;;;;;;;2.87;2.67;;;;;;;;;;5031285;28;20299;-66
2022/09/24 02:03:01;;;;;;;2.53;2.43;;;;;;;;;;5031253;28;20220;-66
2022/09/24 02:05:32;;;;;;;3.53;3.23;;;;;;;;;;5031030;28;20645;-66
2022/09/24 02:08:04;;;;;;;3.00;2.70;;;;;;;;;;5031791;28;20603;-66
2022/09/24 02:10:33;;;;;;;2.27;2.17;;;;;;;;;;5031365;28;20624;-66
2022/09/24 02:13:02;;;;;;;2.97;2.77;;;;;;;;;;5031415;28;20232;-66
2022/09/24 02:15:32;;;;;;;2.30;2.20;;;;;;;;;;5030683;28;20215;-66
2022/09/24 02:18:03;;;;;;;2.60;2.40;;;;;;;;;;5031526;28;20208;-66
2022/09/24 02:20:32;;;;;;;3.23;2.13;;;;;;;;;;5031237;28;20204;-66
2022/09/24 02:23:00;;;;;;;2.97;2.77;;;;;;;;;;5031086;28;20215;-66
2022/09/24 02:25:34;;;;;;;10.83;3.90;;;;;;;;;;5031314;28;20240;-66
2022/09/24 02:28:02;;;;;;;13.40;6.33;;;;;;;;;;5030710;28;20201;-66
2022/09/24 02:30:29;;;;;;;3.53;2.70;;;;;;;;;;5030965;28;20819;-66
2022/09/24 02:32:57;;;;;;;2.73;2.50;;;;;;;;;;5030558;28;20641;-67
2022/09/24 02:35:23;;;;;;;2.40;2.20;;;;;;;;;;5030866;28;20205;-66
2022/09/24 02:37:52;;;;;;;5.27;2.27;;;;;;;;;;5030381;28;20219;-66
2022/09/24 02:40:19;;;;;;;6.43;4.20;;;;;;;;;;5030148;28;20220;-66
2022/09/24 02:42:46;;;;;;;3.30;2.90;;;;;;;;;;5031070;28;20204;-66
2022/09/24 02:45:13;;;;;;;2.63;2.50;;;;;;;;;;5030858;28;20205;-66
2022/09/24 02:47:40;;;;;;;2.67;2.47;;;;;;;;;;5030553;28;20290;-66
2022/09/24 02:50:08;;;;;;;6.13;2.60;;;;;;;;;;5030338;28;20212;-66
2022/09/24 02:52:35;;;;;;;3.40;2.37;;;;;;;;;;5030101;28;20236;-66
2022/09/24 02:55:03;;;;;;;4.07;3.23;;;;;;;;;;5030538;28;20266;-66
2022/09/24 02:57:30;;;;;;;2.80;2.60;;;;;;;;;;5029267;28;20212;-66
2022/09/24 02:59:57;;;;;;;3.40;2.87;;;;;;;;;;5030905;28;20295;-66
2022/09/24 03:02:24;;;;;;;3.33;2.57;;;;;;;;;;5030195;28;20678;-67
2022/09/24 03:04:51;;;;;;;3.20;3.00;;;;;;;;;;5030104;28;20208;-66
2022/09/24 03:07:20;;;;;;;4.13;2.53;;;;;;;;;;5029790;28;20239;-66
2022/09/24 03:09:47;;;;;;;4.23;2.70;;;;;;;;;;5030346;28;20208;-67
2022/09/24 03:12:16;;;;;;;2.37;2.20;;;;;;;;;;5030194;28;20236;-66
2022/09/24 03:14:43;;;;;;;3.70;2.73;;;;;;;;;;5030949;28;20606;-67
2022/09/24 03:17:10;;;;;;;5.03;2.50;;;;;;;;;;5030343;28;20207;-66
2022/09/24 03:19:37;;;;;;;3.43;2.80;;;;;;;;;;5030458;28;20218;-67
2022/09/24 03:22:04;;;;;;;2.20;2.10;;;;;;;;;;5030463;28;20615;-66
2022/09/24 03:24:31;;;;;;;6.97;2.90;;;;;;;;;;5030392;28;20216;-66
2022/09/24 03:26:58;;;;;;;2.80;2.60;;;;;;;;;;5030443;28;20212;-66
2022/09/24 03:32:07;;;;;;;2.50;2.40;;;;;;;;;;5018002;28;20225;-66
2022/09/24 03:34:34;;;;;;;2.50;2.40;;;;;;;;;;5030535;28;20209;-66
2022/09/24 03:37:01;;;;;;;2.40;2.20;;;;;;;;;;5030321;28;20204;-66
2022/09/24 03:39:40;;;;;;;1.80;1.70;;;;;;;;;;5029611;28;20212;-66
2022/09/24 03:42:07;;;;;;;2.20;2.10;;;;;;;;;;5030159;28;20224;-66
2022/09/24 03:44:35;;;;;;;1.97;1.87;;;;;;;;;;5030073;28;20262;-67
2022/09/24 03:47:02;;;;;;;2.30;2.07;;;;;;;;;;5018306;28;20201;-67
2022/09/24 03:49:29;;;;;;;1.83;1.73;;;;;;;;;;5029940;28;20270;-66
2022/09/24 03:51:56;;;;;;;2.50;2.30;;;;;;;;;;5029772;28;20671;-66
2022/09/24 03:54:23;;;;;;;1.70;1.60;;;;;;;;;;5029747;28;20212;-66
2022/09/24 03:56:50;;;;;;;2.47;2.27;;;;;;;;;;5029564;28;20682;-66
2022/09/24 03:59:17;;;;;;;2.20;2.10;;;;;;;;;;5029506;28;20208;-65
2022/09/24 04:01:46;;;;;;;1.93;1.83;;;;;;;;;;5030211;28;20200;-66
2022/09/24 04:04:15;;;;;;;2.00;1.90;;;;;;;;;;5029644;28;20239;-66
2022/09/24 04:06:42;;;;;;;2.20;1.93;;;;;;;;;;5029586;28;20243;-66
2022/09/24 04:09:09;;;;;;;1.70;1.70;;;;;;;;;;5029362;28;20213;-66
2022/09/24 04:11:36;;;;;;;2.23;2.00;;;;;;;;;;5029343;28;20403;-67
2022/09/24 04:14:04;;;;;;;2.07;1.90;;;;;;;;;;5029272;28;20697;-66
2022/09/24 04:16:31;;;;;;;2.43;2.23;;;;;;;;;;5029877;28;20258;-67
2022/09/24 04:19:00;;;;;;;2.37;2.17;;;;;;;;;;5029816;28;20912;-66
2022/09/24 04:21:29;;;;;;;2.73;2.37;;;;;;;;;;5029486;28;20212;-66
2022/09/24 04:23:56;;;;;;;2.50;1.90;;;;;;;;;;5029411;28;20207;-66
2022/09/24 04:26:23;;;;;;;1.80;1.70;;;;;;;;;;5029141;28;20261;-67
2022/09/24 04:28:50;;;;;;;2.27;2.07;;;;;;;;;;5029277;28;20208;-66
2022/09/24 04:31:17;;;;;;;2.73;2.03;;;;;;;;;;5029195;28;20283;-67
2022/09/24 04:33:44;;;;;;;2.10;2.00;;;;;;;;;;5029447;28;20282;-66
2022/09/24 04:36:12;;;;;;;2.20;2.10;;;;;;;;;;5029506;28;20246;-66
2022/09/24 04:38:39;;;;;;;2.20;2.10;;;;;;;;;;5028922;28;20209;-66
2022/09/24 04:41:07;;;;;;;3.47;2.23;;;;;;;;;;5029212;28;20637;-66
2022/09/24 04:43:35;;;;;;;2.23;2.10;;;;;;;;;;5028138;28;20205;-67
2022/09/24 04:46:02;;;;;;;2.53;2.37;;;;;;;;;;5028960;28;20204;-66
2022/09/24 04:48:30;;;;;;;2.17;2.07;;;;;;;;;;5029581;28;20219;-66
2022/09/24 04:50:57;;;;;;;3.40;2.20;;;;;;;;;;5028945;28;20200;-66
2022/09/24 04:53:26;;;;;;;2.10;2.00;;;;;;;;;;5029119;28;20232;-66
2022/09/24 04:55:53;;;;;;;2.23;2.13;;;;;;;;;;5028912;28;20250;-65
2022/09/24 04:58:20;;;;;;;2.30;2.10;;;;;;;;;;5027759;28;20331;-66
2022/09/24 05:00:47;;;;;;;2.33;2.20;;;;;;;;;;5028548;28;20985;-66
2022/09/24 05:03:14;;;;;;;4.13;2.03;;;;;;;;;;5029267;28;20290;-66
2022/09/24 05:05:41;;;;;;;2.10;1.93;;;;;;;;;;5029337;28;20212;-66
2022/09/24 05:08:08;;;;;;;2.10;2.00;;;;;;;;;;5028191;28;20220;-66
2022/09/24 05:10:36;;;;;;;2.07;1.97;;;;;;;;;;5028588;28;20234;-66
2022/09/24 05:13:03;;;;;;;3.50;2.23;;;;;;;;;;5028840;28;20921;-66
2022/09/24 05:15:30;;;;;;;1.70;1.70;;;;;;;;;;5028791;28;20258;-66
2022/09/24 05:17:57;;;;;;;2.00;1.80;;;;;;;;;;5029323;28;20204;-66
2022/09/24 05:20:25;;;;;;;1.80;1.80;;;;;;;;;;5028573;28;20223;-66
2022/09/24 05:22:52;;;;;;;1.97;1.87;;;;;;;;;;5028560;28;20846;-66
2022/09/24 05:25:19;;;;;;;1.87;1.77;;;;;;;;;;5028527;28;20248;-66
2022/09/24 05:27:47;;;;;;;2.67;2.03;;;;;;;;;;5028859;28;20218;-65
2022/09/24 05:30:15;;;;;;;1.73;1.63;;;;;;;;;;5024749;28;20213;-65
2022/09/24 05:32:42;;;;;;;2.07;1.97;;;;;;;;;;5028507;28;20220;-63
2022/09/24 05:35:09;;;;;;;1.70;1.60;;;;;;;;;;5029153;28;20568;-66
2022/09/24 05:37:37;;;;;;;2.00;1.90;;;;;;;;;;5028048;28;20208;-66
2022/09/24 05:42:49;;;;;;;1.90;1.80;;;;;;;;;;5024269;28;20193;-67
2022/09/24 05:45:17;;;;;;;2.00;1.90;;;;;;;;;;5018413;28;20207;-69
2022/09/24 05:47:45;;;;;;;1.80;1.80;;;;;;;;;;5019505;28;20232;-68
2022/09/24 05:50:12;;;;;;;2.33;2.13;;;;;;;;;;5009195;28;20213;-67
2022/09/24 05:52:39;;;;;;;5.23;2.00;;;;;;;;;;5025565;28;20702;-67
2022/09/24 05:55:07;;;;;;;4.87;2.07;;;;;;;;;;5031529;28;20204;-68
2022/09/24 05:57:34;;;;;;;1.83;1.83;;;;;;;;;;5032284;28;20262;-67
2022/09/24 06:00:01;;;;;;;1.93;1.93;;;;;;;;;;5032341;28;20204;-66
2022/09/24 06:02:30;;;;;;;3.43;1.93;;;;;;;;;;5031754;28;20239;-66
2022/09/24 06:04:57;;;;;;;1.80;1.80;;;;;;;;;;5032308;28;20733;-66
2022/09/24 06:07:24;;;;;;;2.27;2.10;;;;;;;;;;5032016;28;20262;-66
2022/09/24 06:09:51;;;;;;;2.10;2.00;;;;;;;;;;5032273;28;20201;-67
2022/09/24 06:12:18;;;;;;;2.00;1.90;;;;;;;;;;5031986;28;20205;-67
2022/09/24 06:14:45;;;;;;;3.27;2.47;;;;;;;;;;5032455;28;20282;-67
2022/09/24 06:17:12;;;;;;;2.80;2.10;;;;;;;;;;5032381;28;20208;-67
2022/09/24 06:19:41;;;;;;;2.90;2.70;;;;;;;;;;5032139;28;20212;-67
2022/09/24 06:22:08;;;;;;;7.93;2.80;;;;;;;;;;5031681;28;20204;-67
2022/09/24 06:24:35;;;;;;;2.03;1.93;;;;;;;;;;5027774;28;20208;-67
2022/09/24 06:27:02;;;;;;;1.93;1.83;;;;;;;;;;5032304;28;20212;-67
2022/09/24 06:29:29;;;;;;;2.80;2.60;;;;;;;;;;5031654;28;20212;-66
2022/09/24 06:31:56;;;;;;;2.90;2.67;;;;;;;;;;5030851;28;20200;-67
2022/09/24 06:34:24;;;;;;;6.63;3.50;;;;;;;;;;5031251;28;20297;-67
2022/09/24 06:36:58;;;;;;;3.13;2.80;;;;;;;;;;5031405;28;20221;-67
2022/09/24 06:39:26;;;;;;;3.83;3.27;;;;;;;;;;5030422;28;20218;-68
2022/09/24 06:41:53;;;;;;;3.40;3.20;;;;;;;;;;5028292;28;20219;-68
2022/09/24 06:44:20;;;;;;;3.97;3.67;;;;;;;;;;5030872;28;20196;-68
2022/09/24 06:46:47;;;;;;;3.80;3.50;;;;;;;;;;5030906;28;20744;-68
2022/09/24 06:49:14;;;;;;;7.13;3.90;;;;;;;;;;5031463;28;20303;-68
2022/09/24 06:51:41;;;;;;;4.17;3.87;;;;;;;;;;5030842;28;20212;-68
2022/09/24 06:54:10;;;;;;;4.40;4.00;;;;;;;;;;5030391;28;20235;-67
2022/09/24 06:56:37;;;;;;;4.53;3.80;;;;;;;;;;5030870;28;20304;-68
2022/09/24 06:59:05;;;;;;;3.77;3.47;;;;;;;;;;5028717;28;20209;-66
2022/09/24 07:01:32;;;;;;;4.07;3.33;;;;;;;;;;5028679;28;20211;-66
2022/09/24 07:03:59;;;;;;;3.70;3.40;;;;;;;;;;5030315;28;20216;-65
2022/09/24 07:07:28;;;;;;;4.37;4.00;;;;;;;;;;5029354;28;20209;-68
2022/09/24 07:09:14;;;;;;;4.30;3.87;;;;;;;;;;5030665;28;20255;-68
2022/09/24 07:11:43;;;;;;;4.73;4.00;;;;;;;;;;5030626;28;20214;-68
2022/09/24 07:14:10;;;;;;;4.10;3.80;;;;;;;;;;5030283;28;20228;-67
2022/09/24 07:16:37;;;;;;;4.10;3.70;;;;;;;;;;5030580;28;20908;-68
2022/09/24 07:19:04;;;;;;;3.90;3.60;;;;;;;;;;5030098;28;20208;-67
2022/09/24 07:21:32;;;;;;;3.63;3.40;;;;;;;;;;5030661;28;20235;-68
2022/09/24 07:23:59;;;;;;;4.90;3.70;;;;;;;;;;5030080;28;20216;-67
2022/09/24 07:26:28;;;;;;;4.83;3.63;;;;;;;;;;5030294;28;20240;-67
2022/09/24 07:28:55;;;;;;;5.87;4.73;;;;;;;;;;5030004;28;20219;-67
2022/09/24 07:31:24;;;;;;;4.70;4.20;;;;;;;;;;5024266;28;20216;-65
2022/09/24 07:33:52;;;;;;;4.10;3.80;;;;;;;;;;5029770;28;20225;-64
2022/09/24 07:36:19;;;;;;;6.67;5.13;;;;;;;;;;5029857;28;20566;-66
2022/09/24 07:38:46;;;;;;;6.53;4.93;;;;;;;;;;5030321;28;20674;-68
2022/09/24 07:41:13;;;;;;;4.60;4.20;;;;;;;;;;5030074;28;20200;-63
2022/09/24 07:43:43;;;;;;;6.40;4.97;;;;;;;;;;5029185;28;20298;-68
2022/09/24 07:46:34;;;;;;;4.23;3.93;;;;;;;;;;5030094;28;20235;-73
2022/09/24 07:49:01;;;;;;;6.13;5.10;;;;;;;;;;5014210;28;20220;-64
2022/09/24 07:51:28;;;;;;;5.77;5.23;;;;;;;;;;5029594;28;20747;-67
2022/09/24 07:53:56;;;;;;;5.23;4.73;;;;;;;;;;5029512;28;20228;-65
2022/09/24 07:56:24;;;;;;;5.43;4.63;;;;;;;;;;5029184;28;20205;-67
2022/09/24 07:58:53;;;;;;;6.67;4.80;;;;;;;;;;5028519;28;20208;-67
2022/09/24 08:01:20;;;;;;;6.90;5.27;;;;;;;;;;5029105;28;20208;-67
2022/09/24 08:03:47;;;;;;;5.43;5.03;;;;;;;;;;5029396;28;20216;-64
2022/09/24 08:06:14;;;;;;;6.13;5.47;;;;;;;;;;5029378;28;20216;-64
2022/09/24 08:08:42;;;;;;;6.90;4.83;;;;;;;;;;5029239;28;20662;-62
2022/09/24 08:11:10;;;;;;;5.93;5.33;;;;;;;;;;5029255;28;20208;-62
2022/09/24 08:13:38;;;;;;;9.93;4.90;;;;;;;;;;5028720;28;20228;-65
2022/09/24 08:16:06;;;;;;;5.93;5.07;;;;;;;;;;5028719;28;20650;-62
2022/09/24 08:18:33;;;;;;;6.47;5.47;;;;;;;;;;5028983;28;20973;-68
2022/09/24 08:21:04;;;;;;;6.10;5.50;;;;;;;;;;5028562;28;20197;-62
2022/09/24 08:23:32;;;;;;;5.50;5.10;;;;;;;;;;5028489;28;20211;-63
2022/09/24 08:25:59;;;;;;;6.83;5.20;;;;;;;;;;5028514;28;20330;-62
2022/09/24 08:28:26;;;;;;;7.33;5.23;;;;;;;;;;5028994;28;20216;-65
2022/09/24 08:30:57;;;;;;;11.47;5.63;;;;;;;;;;5025395;28;20201;-62
2022/09/24 08:33:26;;;;;;;6.20;5.60;;;;;;;;;;5021174;28;20283;-62
2022/09/24 08:35:53;;;;;;;13.13;6.23;;;;;;;;;;5028430;28;21038;-62
2022/09/24 08:38:20;;;;;;;5.93;5.43;;;;;;;;;;5027543;28;20213;-62
2022/09/24 08:40:53;;;;;;;5.30;4.87;;;;;;;;;;5028849;28;20232;-64
2022/09/24 08:43:27;;;;;;;7.13;5.57;;;;;;;;;;5028481;28;20208;-63
2022/09/24 08:48:45;;;;;;;7.97;6.30;;;;;;;;;;5028740;28;20253;-62
2022/09/24 08:51:13;;;;;;;6.70;6.00;;;;;;;;;;5029086;28;20216;-62
2022/09/24 08:53:45;;;;;;;9.23;6.37;;;;;;;;;;5028393;28;20224;-63
2022/09/24 08:56:12;;;;;;;7.33;5.87;;;;;;;;;;5026894;28;20216;-62
2022/09/24 08:58:45;;;;;;;6.87;5.37;;;;;;;;;;5028617;28;20216;-62
2022/09/24 09:01:18;;;;;;;6.60;6.00;;;;;;;;;;5028410;28;20200;-62
2022/09/24 09:03:50;;;;;;;7.07;5.87;;;;;;;;;;5028292;28;20270;-63
2022/09/24 09:06:30;;;;;;;7.15;6.30;;;;;;;;;;5025724;28;20204;-63
2022/09/24 09:08:59;;;;;;;7.00;6.13;;;;;;;;;;5028442;28;20243;-63
2022/09/24 09:11:29;;;;;;;7.60;6.80;;;;;;;;;;5027765;28;20196;-66
2022/09/24 09:13:59;;;;;;;7.53;6.73;;;;;;;;;;5027657;28;20231;-63
2022/09/24 09:16:28;;;;;;;8.02;6.20;;;;;;;;;;5026316;28;20230;-64
2022/09/24 09:19:01;;;;;;;9.60;6.22;;;;;;;;;;5023769;28;20201;-63
2022/09/24 09:21:31;;;;;;;9.05;6.15;;;;;;;;;;5027614;28;20242;-62
2022/09/24 09:23:59;;;;;;;7.75;6.25;;;;;;;;;;5028233;28;20303;-63
2022/09/24 09:26:26;;;;;;;9.77;6.43;;;;;;;;;;5027162;28;20247;-64
2022/09/24 09:28:56;;;;;;;9.05;6.32;;;;;;;;;;5028653;28;20212;-62
2022/09/24 09:31:28;;;;;;;6.60;5.78;;;;;;;;;;5031629;28;20216;-64
2022/09/24 09:34:06;;;;;;;7.15;6.07;;;;;;;;;;5028459;28;20598;-63
2022/09/24 09:36:38;;;;;;;6.78;5.90;;;;;;;;;;5017479;28;20247;-61
2022/09/24 09:39:16;;;;;;;7.13;6.43;;;;;;;;;;5032214;28;20208;-60
2022/09/24 09:41:49;;;;;;;9.32;6.40;;;;;;;;;;5032508;28;20204;-59
2022/09/24 09:44:26;;;;;;;8.15;6.05;;;;;;;;;;5032708;28;20201;-59
2022/09/24 09:46:56;;;;;;;8.40;6.68;;;;;;;;;;5031896;28;20230;-60
2022/09/24 09:49:28;;;;;;;8.35;6.13;;;;;;;;;;5015225;28;20215;-60
2022/09/24 09:51:57;;;;;;;9.80;7.30;;;;;;;;;;5031962;28;20288;-59
2022/09/24 09:54:36;;;;;;;8.55;6.60;;;;;;;;;;5032196;28;20315;-59
2022/09/24 09:57:03;;;;;;;7.95;6.68;;;;;;;;;;5031885;28;20922;-59
2022/09/24 09:59:33;;;;;;;7.70;6.68;;;;;;;;;;5032016;28;20205;-59
2022/09/24 10:02:00;;;;;;;8.07;6.95;;;;;;;;;;5032176;28;20231;-59
2022/09/24 10:04:38;;;;;;;13.18;7.13;;;;;;;;;;5032265;28;20228;-60
2022/09/24 10:07:09;;;;;;;10.48;7.10;;;;;;;;;;5029116;28;20216;-59
2022/09/24 10:09:36;;;;;;;11.02;6.80;;;;;;;;;;5031908;28;20262;-61
2022/09/24 10:12:10;;;;;;;7.22;6.53;;;;;;;;;;5031479;28;20224;-61
2022/09/24 10:14:37;;;;;;;7.47;6.18;;;;;;;;;;5024643;28;20885;-59
2022/09/24 10:17:05;;;;;;;7.53;6.25;;;;;;;;;;5028745;28;20211;-60
2022/09/24 10:19:35;;;;;;;7.07;6.30;;;;;;;;;;5029957;28;20641;-60
2022/09/24 10:22:10;;;;;;;8.02;6.90;;;;;;;;;;5027660;28;20212;-60
2022/09/24 10:24:37;;;;;;;7.78;6.28;;;;;;;;;;5030773;28;20204;-59
2022/09/24 10:27:11;;;;;;;7.80;6.32;;;;;;;;;;5031754;28;20205;-59
2022/09/24 10:32:24;;;;;;;9.55;7.03;;;;;;;;;;5031257;28;20860;-60
2022/09/24 10:34:58;;;;;;;7.20;5.80;;;;;;;;;;5030446;28;20236;-63
2022/09/24 10:37:26;;;;;;;11.63;6.10;;;;;;;;;;5030321;28;20678;-59
2022/09/24 10:40:00;;;;;;;6.15;5.60;;;;;;;;;;5029667;28;20626;-60
2022/09/24 10:42:28;;;;;;;7.78;5.75;;;;;;;;;;5030592;28;20223;-60
2022/09/24 10:44:55;;;;;;;9.80;6.25;;;;;;;;;;5029924;28;20653;-60
2022/09/24 10:47:26;;;;;;;7.72;5.75;;;;;;;;;;5029977;28;20197;-60
2022/09/24 10:50:00;;;;;;;9.98;6.35;;;;;;;;;;5030290;28;20312;-60
2022/09/24 10:52:34;;;;;;;10.43;7.03;;;;;;;;;;5030338;28;20299;-60
2022/09/24 10:55:07;;;;;;;6.20;5.65;;;;;;;;;;5028198;28;20266;-61
2022/09/24 10:57:38;;;;;;;9.65;5.75;;;;;;;;;;5027937;28;20215;-60
2022/09/24 11:00:09;;;;;;;5.90;5.30;;;;;;;;;;5030212;28;20583;-60
2022/09/24 11:02:43;;;;;;;6.13;5.53;;;;;;;;;;5029400;28;20598;-60
2022/09/24 11:05:12;;;;;;;6.10;4.82;;;;;;;;;;5029518;28;20204;-61
2022/09/24 11:07:59;;;;;;;5.63;5.13;;;;;;;;;;5029380;28;20319;-59
2022/09/24 11:10:35;;;;;;;6.15;4.55;;;;;;;;;;5022950;28;20208;-59
2022/09/24 11:13:06;;;;;;;3.70;3.40;;;;;;;;;;5030710;28;20314;-59
2022/09/24 11:15:44;;;;;;;4.00;3.70;;;;;;;;;;5026989;28;20256;-59
2022/09/24 11:18:19;;;;;;;3.10;2.80;;;;;;;;;;5030072;28;20204;-59
2022/09/24 11:20:51;;;;;;;3.42;3.10;;;;;;;;;;5030172;28;20226;-59
2022/09/24 11:23:27;;;;;;;3.80;3.50;;;;;;;;;;5030155;28;20626;-60
2022/09/24 11:26:01;;;;;;;4.20;3.90;;;;;;;;;;5029536;28;20236;-59
2022/09/24 11:28:39;;;;;;;4.50;4.10;;;;;;;;;;5030127;28;20259;-59
2022/09/24 11:31:08;;;;;;;3.13;2.92;;;;;;;;;;5029625;28;20274;-59
2022/09/24 11:33:44;;;;;;;3.28;2.97;;;;;;;;;;5029196;28;20212;-59
2022/09/24 11:36:26;;;;;;;2.92;2.72;;;;;;;;;;5029461;28;20220;-60
2022/09/24 11:39:00;;;;;;;2.80;2.70;;;;;;;;;;5029607;28;20208;-59
2022/09/24 11:41:38;;;;;;;2.92;2.78;;;;;;;;;;5030106;28;20216;-59
2022/09/24 11:44:17;;;;;;;2.60;2.50;;;;;;;;;;5024065;28;20658;-60
2022/09/24 11:46:50;;;;;;;3.40;2.95;;;;;;;;;;5029548;28;20208;-59
2022/09/24 11:49:29;;;;;;;2.95;2.78;;;;;;;;;;5028871;28;20208;-59
2022/09/24 11:52:00;;;;;;;3.08;2.88;;;;;;;;;;5029321;28;20342;-59
2022/09/24 11:54:30;;;;;;;3.30;3.10;;;;;;;;;;5015242;28;20205;-59
2022/09/24 11:57:01;;;;;;;2.67;2.47;;;;;;;;;;5026591;28;20205;-60
2022/09/24 11:59:33;;;;;;;4.22;3.33;;;;;;;;;;5029722;28;20259;-60
2022/09/24 12:02:04;;;;;;;3.17;2.88;;;;;;;;;;5029483;28;20583;-62
2022/09/24 12:04:37;;;;;;;3.33;3.13;;;;;;;;;;5029329;28;20212;-61
2022/09/24 12:07:11;;;;;;;3.35;3.15;;;;;;;;;;5029053;28;20259;-61
2022/09/24 12:09:41;;;;;;;3.42;3.20;;;;;;;;;;5026983;28;20679;-61
2022/09/24 12:12:14;;;;;;;4.53;3.60;;;;;;;;;;5028671;28;20212;-62
2022/09/24 12:14:44;;;;;;;3.03;2.83;;;;;;;;;;5028304;28;21017;-59
2022/09/24 12:17:18;;;;;;;2.72;2.50;;;;;;;;;;5028128;28;20259;-65
2022/09/24 12:19:50;;;;;;;2.45;2.35;;;;;;;;;;5029112;28;20745;-64
2022/09/24 12:22:18;;;;;;;7.95;2.40;;;;;;;;;;5029453;28;20216;-72
2022/09/24 12:24:46;;;;;;;4.68;3.00;;;;;;;;;;5029748;28;20317;-64
2022/09/24 12:27:17;;;;;;;3.50;3.22;;;;;;;;;;5020730;28;20466;-61
2022/09/24 12:32:56;;;;;;;2.50;2.40;;;;;;;;;;5026639;28;20650;-60
2022/09/24 12:35:31;;;;;;;2.70;2.60;;;;;;;;;;5027691;28;20643;-60
2022/09/24 12:38:02;;;;;;;2.72;2.63;;;;;;;;;;5027759;28;20211;-60
2022/09/24 12:40:40;;;;;;;2.45;2.15;;;;;;;;;;5027654;28;20266;-59
2022/09/24 12:43:13;;;;;;;1.73;1.70;;;;;;;;;;5028730;28;20211;-59
2022/09/24 12:45:41;;;;;;;1.60;1.60;;;;;;;;;;5026594;28;20196;-59
2022/09/24 12:48:13;;;;;;;1.73;1.73;;;;;;;;;;5026929;28;20216;-59
2022/09/24 12:50:44;;;;;;;2.17;2.08;;;;;;;;;;5028097;28;20208;-58
2022/09/24 12:53:23;;;;;;;2.70;2.17;;;;;;;;;;5027951;28;20756;-59
2022/09/24 12:55:50;;;;;;;2.47;2.05;;;;;;;;;;5016714;28;20241;-59
2022/09/24 12:58:27;;;;;;;2.55;2.45;;;;;;;;;;5021530;28;20220;-59
2022/09/24 13:01:05;;;;;;;2.58;2.47;;;;;;;;;;5027951;28;20291;-59
2022/09/24 13:03:33;;;;;;;3.20;2.60;;;;;;;;;;5021075;28;20216;-59
2022/09/24 13:06:00;;;;;;;2.50;2.30;;;;;;;;;;5012618;28;20645;-59
2022/09/24 13:08:35;;;;;;;2.65;1.70;;;;;;;;;;5021229;28;20204;-59
2022/09/24 13:11:04;;;;;;;2.25;2.15;;;;;;;;;;5028451;28;20208;-59
2022/09/24 13:13:34;;;;;;;3.22;2.90;;;;;;;;;;5021431;28;20205;-59
2022/09/24 13:16:03;;;;;;;2.20;2.10;;;;;;;;;;5027149;28;20228;-59
2022/09/24 13:18:32;;;;;;;2.33;2.22;;;;;;;;;;5027456;28;20204;-59
2022/09/24 13:21:01;;;;;;;3.15;2.67;;;;;;;;;;5017972;28;20211;-59
2022/09/24 13:23:43;;;;;;;3.08;2.63;;;;;;;;;;5017395;28;20579;-60
2022/09/24 13:26:13;;;;;;;3.63;3.30;;;;;;;;;;5008331;28;20248;-60
2022/09/24 13:28:54;;;;;;;3.45;2.53;;;;;;;;;;5022076;28;20212;-60
2022/09/24 13:31:26;;;;;;;2.83;2.67;;;;;;;;;;5027468;28;20212;-59
2022/09/24 13:33:55;;;;;;;3.63;3.30;;;;;;;;;;5027853;28;20208;-60
2022/09/24 13:36:26;;;;;;;3.35;3.08;;;;;;;;;;5027935;28;20232;-59
2022/09/24 13:38:56;;;;;;;2.72;2.47;;;;;;;;;;5027643;28;20315;-59
2022/09/24 13:41:26;;;;;;;4.63;3.25;;;;;;;;;;5028743;28;20208;-60
2022/09/24 13:43:56;;;;;;;3.10;2.78;;;;;;;;;;5028428;28;20219;-60
2022/09/24 13:46:24;;;;;;;3.47;2.50;;;;;;;;;;5009282;28;20208;-60
2022/09/24 13:48:52;;;;;;;3.47;3.15;;;;;;;;;;5025253;28;20208;-62
2022/09/24 13:51:23;;;;;;;3.42;3.17;;;;;;;;;;5025991;28;20205;-62
2022/09/24 13:53:52;;;;;;;3.92;3.63;;;;;;;;;;5024656;28;20205;-63
2022/09/24 13:56:20;;;;;;;3.28;3.08;;;;;;;;;;5027847;28;20278;-62
2022/09/24 13:58:50;;;;;;;5.10;4.25;;;;;;;;;;5027702;28;20208;-63
2022/09/24 14:01:19;;;;;;;4.13;3.72;;;;;;;;;;5024263;28;20727;-63
2022/09/24 14:03:52;;;;;;;4.70;4.28;;;;;;;;;;5020904;28;20760;-61
2022/09/24 14:06:21;;;;;;;4.35;3.95;;;;;;;;;;5019589;28;20200;-60
2022/09/24 14:08:50;;;;;;;4.00;3.70;;;;;;;;;;5027694;28;20215;-61
2022/09/24 14:11:18;;;;;;;4.28;3.85;;;;;;;;;;5027835;28;20291;-61
2022/09/24 14:13:46;;;;;;;4.28;3.88;;;;;;;;;;5028085;28;20201;-62
2022/09/24 14:16:15;;;;;;;5.18;4.38;;;;;;;;;;5031019;28;20228;-62
2022/09/24 14:18:43;;;;;;;5.15;4.53;;;;;;;;;;5031359;28;20678;-62
2022/09/24 14:21:13;;;;;;;4.50;4.15;;;;;;;;;;5032466;28;20219;-62
2022/09/24 14:23:43;;;;;;;5.35;4.85;;;;;;;;;;5030928;28;20216;-62
2022/09/24 14:26:16;;;;;;;4.72;4.32;;;;;;;;;;5031342;28;20244;-61
2022/09/24 14:28:43;;;;;;;4.93;4.47;;;;;;;;;;5029678;28;20204;-62
2022/09/24 14:31:10;;;;;;;6.28;4.18;;;;;;;;;;5023306;28;20205;-62
2022/09/24 14:33:38;;;;;;;6.53;5.05;;;;;;;;;;5025791;28;20266;-62
2022/09/24 14:36:10;;;;;;;5.07;4.57;;;;;;;;;;5030778;28;20224;-63
2022/09/24 14:38:49;;;;;;;6.65;4.55;;;;;;;;;;5030268;28;20212;-62
2022/09/24 14:41:18;;;;;;;6.15;4.35;;;;;;;;;;5030835;28;20670;-62
2022/09/24 14:43:47;;;;;;;4.15;3.85;;;;;;;;;;5030157;28;20208;-63
2022/09/24 14:46:16;;;;;;;5.72;4.65;;;;;;;;;;5030610;28;20196;-61
2022/09/24 14:48:43;;;;;;;7.57;4.57;;;;;;;;;;5030658;28;20612;-61
2022/09/24 14:51:23;;;;;;;4.78;4.25;;;;;;;;;;5029302;28;20240;-62
2022/09/24 14:53:57;;;;;;;5.38;3.58;;;;;;;;;;5029815;28;20212;-61
2022/09/24 14:56:27;;;;;;;3.35;3.15;;;;;;;;;;5029948;28;20224;-61
2022/09/24 14:58:55;;;;;;;3.30;2.90;;;;;;;;;;5028766;28;20204;-66
2022/09/24 15:01:23;;;;;;;3.15;2.90;;;;;;;;;;5028582;28;20204;-61
2022/09/24 15:03:51;;;;;;;2.85;2.65;;;;;;;;;;5028092;28;20221;-58
2022/09/24 15:06:20;;;;;;;2.97;2.55;;;;;;;;;;5029005;28;20204;-59
2022/09/24 15:09:08;;;;;;;2.72;2.63;;;;;;;;;;5030179;28;20205;-59
2022/09/24 15:11:39;;;;;;;3.33;3.08;;;;;;;;;;5025748;28;20220;-60
2022/09/24 15:14:13;;;;;;;3.42;3.22;;;;;;;;;;5029194;28;20390;-59